sensor_id;sensor_type;location;lat;lon;timestamp;pressure;altitude;pressure_sealevel;temperature;humidity
76728;BME280;65652;53.132;18.026;2023-12-07T00:01:46;101564.31;;;-0.30;73.14
76728;BME280;65652;53.132;18.026;2023-12-07T00:04:13;101567.82;;;-0.32;73.19
76728;BME280;65652;53.132;18.026;2023-12-07T00:06:40;101571.09;;;-0.30;73.24
76728;BME280;65652;53.132;18.026;2023-12-07T00:09:07;101570.88;;;-0.29;73.13
76728;BME280;65652;53.132;18.026;2023-12-07T00:11:34;101572.11;;;-0.30;73.03
76728;BME280;65652;53.132;18.026;2023-12-07T00:14:00;101569.01;;;-0.30;73.13
76728;BME280;65652;53.132;18.026;2023-12-07T00:16:27;101570.39;;;-0.31;73.18
76728;BME280;65652;53.132;18.026;2023-12-07T00:18:54;101570.63;;;-0.32;72.96
76728;BME280;65652;53.132;18.026;2023-12-07T00:21:21;101574.48;;;-0.34;72.98
76728;BME280;65652;53.132;18.026;2023-12-07T00:23:48;101571.40;;;-0.35;73.12
76728;BME280;65652;53.132;18.026;2023-12-07T00:26:15;101572.83;;;-0.37;73.23
76728;BME280;65652;53.132;18.026;2023-12-07T00:28:42;101572.52;;;-0.38;73.22
76728;BME280;65652;53.132;18.026;2023-12-07T00:31:09;101574.20;;;-0.36;73.41
76728;BME280;65652;53.132;18.026;2023-12-07T00:33:37;101572.78;;;-0.35;73.32
76728;BME280;65652;53.132;18.026;2023-12-07T00:36:04;101575.67;;;-0.32;73.03
76728;BME280;65652;53.132;18.026;2023-12-07T00:38:31;101576.14;;;-0.31;73.29
76728;BME280;65652;53.132;18.026;2023-12-07T00:40:58;101577.39;;;-0.32;73.15
76728;BME280;65652;53.132;18.026;2023-12-07T00:43:25;101577.83;;;-0.35;73.32
76728;BME280;65652;53.132;18.026;2023-12-07T00:45:52;101580.13;;;-0.37;73.04
76728;BME280;65652;53.132;18.026;2023-12-07T00:48:19;101581.50;;;-0.37;73.29
76728;BME280;65652;53.132;18.026;2023-12-07T00:50:46;101582.70;;;-0.36;73.16
76728;BME280;65652;53.132;18.026;2023-12-07T00:53:14;101582.54;;;-0.37;73.27
76728;BME280;65652;53.132;18.026;2023-12-07T00:55:40;101584.60;;;-0.35;73.25
76728;BME280;65652;53.132;18.026;2023-12-07T00:58:07;101585.26;;;-0.34;73.11
76728;BME280;65652;53.132;18.026;2023-12-07T01:00:34;101590.59;;;-0.33;73.09
76728;BME280;65652;53.132;18.026;2023-12-07T01:03:01;101590.27;;;-0.34;73.25
76728;BME280;65652;53.132;18.026;2023-12-07T01:05:28;101592.54;;;-0.35;73.04
76728;BME280;65652;53.132;18.026;2023-12-07T01:07:54;101592.05;;;-0.36;72.98
76728;BME280;65652;53.132;18.026;2023-12-07T01:10:21;101593.03;;;-0.34;73.32
76728;BME280;65652;53.132;18.026;2023-12-07T01:12:48;101600.94;;;-0.31;73.11
76728;BME280;65652;53.132;18.026;2023-12-07T01:15:16;101608.16;;;-0.28;73.09
76728;BME280;65652;53.132;18.026;2023-12-07T01:17:43;101608.14;;;-0.28;72.98
76728;BME280;65652;53.132;18.026;2023-12-07T01:20:10;101605.92;;;-0.29;72.97
76728;BME280;65652;53.132;18.026;2023-12-07T01:22:40;101599.43;;;-0.32;73.07
76728;BME280;65652;53.132;18.026;2023-12-07T01:25:08;101603.44;;;-0.33;73.14
76728;BME280;65652;53.132;18.026;2023-12-07T01:27:34;101603.27;;;-0.34;73.19
76728;BME280;65652;53.132;18.026;2023-12-07T01:30:01;101608.11;;;-0.33;73.25
76728;BME280;65652;53.132;18.026;2023-12-07T01:32:30;101606.39;;;-0.33;73.23
76728;BME280;65652;53.132;18.026;2023-12-07T01:34:57;101605.52;;;-0.33;73.24
76728;BME280;65652;53.132;18.026;2023-12-07T01:37:23;101604.80;;;-0.32;73.12
76728;BME280;65652;53.132;18.026;2023-12-07T01:39:50;101605.00;;;-0.33;73.22
76728;BME280;65652;53.132;18.026;2023-12-07T01:42:17;101602.10;;;-0.34;73.31
76728;BME280;65652;53.132;18.026;2023-12-07T01:44:44;101605.40;;;-0.35;73.27
76728;BME280;65652;53.132;18.026;2023-12-07T01:47:11;101606.41;;;-0.34;73.33
76728;BME280;65652;53.132;18.026;2023-12-07T01:49:38;101606.20;;;-0.32;73.29
76728;BME280;65652;53.132;18.026;2023-12-07T01:52:06;101607.88;;;-0.31;73.23
76728;BME280;65652;53.132;18.026;2023-12-07T01:54:33;101609.90;;;-0.29;73.28
76728;BME280;65652;53.132;18.026;2023-12-07T01:57:01;101607.30;;;-0.28;73.16
76728;BME280;65652;53.132;18.026;2023-12-07T01:59:28;101607.63;;;-0.27;73.27
76728;BME280;65652;53.132;18.026;2023-12-07T02:01:55;101612.79;;;-0.26;73.06
76728;BME280;65652;53.132;18.026;2023-12-07T02:04:22;101610.70;;;-0.26;73.17
76728;BME280;65652;53.132;18.026;2023-12-07T02:06:50;101609.48;;;-0.26;73.12
76728;BME280;65652;53.132;18.026;2023-12-07T02:09:17;101611.04;;;-0.26;73.18
76728;BME280;65652;53.132;18.026;2023-12-07T02:11:44;101609.98;;;-0.26;73.20
76728;BME280;65652;53.132;18.026;2023-12-07T02:14:11;101611.02;;;-0.25;73.20
76728;BME280;65652;53.132;18.026;2023-12-07T02:21:41;101605.51;;;-0.27;73.14
76728;BME280;65652;53.132;18.026;2023-12-07T02:24:20;101605.80;;;-0.25;73.23
76728;BME280;65652;53.132;18.026;2023-12-07T02:26:49;101609.63;;;-0.25;73.13
76728;BME280;65652;53.132;18.026;2023-12-07T02:29:16;101613.15;;;-0.27;73.22
76728;BME280;65652;53.132;18.026;2023-12-07T02:31:42;101611.77;;;-0.27;73.29
76728;BME280;65652;53.132;18.026;2023-12-07T02:34:10;101614.05;;;-0.28;73.17
76728;BME280;65652;53.132;18.026;2023-12-07T02:36:38;101614.80;;;-0.30;73.27
76728;BME280;65652;53.132;18.026;2023-12-07T02:39:07;101616.84;;;-0.29;73.36
76728;BME280;65652;53.132;18.026;2023-12-07T02:41:36;101615.28;;;-0.29;73.31
76728;BME280;65652;53.132;18.026;2023-12-07T02:44:03;101617.90;;;-0.29;73.29
76728;BME280;65652;53.132;18.026;2023-12-07T02:46:30;101615.16;;;-0.30;73.19
76728;BME280;65652;53.132;18.026;2023-12-07T02:48:58;101615.98;;;-0.29;73.35
76728;BME280;65652;53.132;18.026;2023-12-07T02:51:25;101617.17;;;-0.27;73.25
76728;BME280;65652;53.132;18.026;2023-12-07T02:53:51;101621.13;;;-0.27;73.23
76728;BME280;65652;53.132;18.026;2023-12-07T02:56:18;101624.64;;;-0.28;73.29
76728;BME280;65652;53.132;18.026;2023-12-07T02:58:45;101625.20;;;-0.29;73.33
76728;BME280;65652;53.132;18.026;2023-12-07T03:01:12;101623.47;;;-0.30;73.28
76728;BME280;65652;53.132;18.026;2023-12-07T03:03:39;101627.95;;;-0.29;73.23
76728;BME280;65652;53.132;18.026;2023-12-07T03:06:07;101631.55;;;-0.27;73.28
76728;BME280;65652;53.132;18.026;2023-12-07T03:08:34;101632.23;;;-0.27;73.19
76728;BME280;65652;53.132;18.026;2023-12-07T03:11:01;101630.15;;;-0.26;73.23
76728;BME280;65652;53.132;18.026;2023-12-07T03:13:27;101630.77;;;-0.24;73.23
76728;BME280;65652;53.132;18.026;2023-12-07T03:15:54;101634.86;;;-0.21;73.31
76728;BME280;65652;53.132;18.026;2023-12-07T03:18:21;101632.69;;;-0.18;73.32
76728;BME280;65652;53.132;18.026;2023-12-07T03:20:48;101631.39;;;-0.15;73.18
76728;BME280;65652;53.132;18.026;2023-12-07T03:23:16;101628.41;;;-0.14;73.13
76728;BME280;65652;53.132;18.026;2023-12-07T03:25:43;101622.80;;;-0.13;72.88
76728;BME280;65652;53.132;18.026;2023-12-07T03:28:10;101621.59;;;-0.12;73.02
76728;BME280;65652;53.132;18.026;2023-12-07T03:30:37;101623.16;;;-0.13;72.95
76728;BME280;65652;53.132;18.026;2023-12-07T03:33:03;101620.94;;;-0.14;72.93
76728;BME280;65652;53.132;18.026;2023-12-07T03:35:30;101619.11;;;-0.17;72.92
76728;BME280;65652;53.132;18.026;2023-12-07T03:37:57;101617.85;;;-0.21;72.82
76728;BME280;65652;53.132;18.026;2023-12-07T03:40:24;101614.64;;;-0.25;72.91
76728;BME280;65652;53.132;18.026;2023-12-07T03:42:50;101616.45;;;-0.27;73.08
76728;BME280;65652;53.132;18.026;2023-12-07T03:45:17;101618.95;;;-0.29;72.99
76728;BME280;65652;53.132;18.026;2023-12-07T03:47:44;101621.76;;;-0.30;72.99
76728;BME280;65652;53.132;18.026;2023-12-07T03:50:11;101626.69;;;-0.33;72.96
76728;BME280;65652;53.132;18.026;2023-12-07T03:52:39;101633.65;;;-0.34;72.98
76728;BME280;65652;53.132;18.026;2023-12-07T03:55:06;101631.94;;;-0.35;73.10
76728;BME280;65652;53.132;18.026;2023-12-07T03:57:33;101635.20;;;-0.34;73.06
76728;BME280;65652;53.132;18.026;2023-12-07T03:59:59;101638.34;;;-0.33;73.12
76728;BME280;65652;53.132;18.026;2023-12-07T04:02:26;101640.25;;;-0.34;72.94
76728;BME280;65652;53.132;18.026;2023-12-07T04:04:53;101642.31;;;-0.21;72.79
76728;BME280;65652;53.132;18.026;2023-12-07T04:07:20;101641.70;;;-0.12;72.41
76728;BME280;65652;53.132;18.026;2023-12-07T04:09:47;101644.04;;;-0.14;72.40
76728;BME280;65652;53.132;18.026;2023-12-07T04:12:13;101645.43;;;-0.27;72.76
76728;BME280;65652;53.132;18.026;2023-12-07T04:14:40;101648.52;;;-0.26;72.71
76728;BME280;65652;53.132;18.026;2023-12-07T04:17:07;101648.05;;;-0.22;72.57
76728;BME280;65652;53.132;18.026;2023-12-07T04:19:34;101652.64;;;-0.24;72.68
76728;BME280;65652;53.132;18.026;2023-12-07T04:22:01;101649.20;;;-0.07;72.21
76728;BME280;65652;53.132;18.026;2023-12-07T04:24:28;101654.58;;;-0.01;71.99
76728;BME280;65652;53.132;18.026;2023-12-07T04:26:55;101657.94;;;-0.15;72.33
76728;BME280;65652;53.132;18.026;2023-12-07T04:29:22;101661.63;;;-0.16;72.58
76728;BME280;65652;53.132;18.026;2023-12-07T04:31:49;101663.52;;;-0.16;72.52
76728;BME280;65652;53.132;18.026;2023-12-07T04:34:16;101667.33;;;-0.15;72.46
76728;BME280;65652;53.132;18.026;2023-12-07T04:36:42;101670.21;;;-0.01;72.77
76728;BME280;65652;53.132;18.026;2023-12-07T04:39:09;101675.31;;;0.15;72.19
76728;BME280;65652;53.132;18.026;2023-12-07T04:41:36;101670.17;;;0.12;72.12
76728;BME280;65652;53.132;18.026;2023-12-07T04:44:04;101671.20;;;0.19;71.97
76728;BME280;65652;53.132;18.026;2023-12-07T04:46:31;101671.50;;;0.20;71.79
76728;BME280;65652;53.132;18.026;2023-12-07T04:48:58;101669.32;;;0.24;71.88
76728;BME280;65652;53.132;18.026;2023-12-07T04:51:25;101669.63;;;0.25;71.67
76728;BME280;65652;53.132;18.026;2023-12-07T04:53:51;101666.47;;;0.26;71.59
76728;BME280;65652;53.132;18.026;2023-12-07T04:56:18;101666.25;;;0.27;71.67
76728;BME280;65652;53.132;18.026;2023-12-07T04:58:45;101662.63;;;0.27;71.59
76728;BME280;65652;53.132;18.026;2023-12-07T05:01:12;101662.48;;;0.26;71.63
76728;BME280;65652;53.132;18.026;2023-12-07T05:03:39;101663.55;;;0.25;71.68
76728;BME280;65652;53.132;18.026;2023-12-07T05:06:06;101668.21;;;0.26;71.84
76728;BME280;65652;53.132;18.026;2023-12-07T05:08:34;101667.25;;;0.29;71.81
76728;BME280;65652;53.132;18.026;2023-12-07T05:11:01;101669.65;;;0.30;71.67
76728;BME280;65652;53.132;18.026;2023-12-07T05:13:27;101670.65;;;0.20;71.71
76728;BME280;65652;53.132;18.026;2023-12-07T05:15:54;101676.19;;;0.08;72.35
76728;BME280;65652;53.132;18.026;2023-12-07T05:18:21;101676.71;;;0.08;72.36
76728;BME280;65652;53.132;18.026;2023-12-07T05:20:48;101679.48;;;0.09;72.42
76728;BME280;65652;53.132;18.026;2023-12-07T05:23:15;101680.86;;;0.09;72.37
76728;BME280;65652;53.132;18.026;2023-12-07T05:25:41;101680.64;;;0.11;72.39
76728;BME280;65652;53.132;18.026;2023-12-07T05:28:08;101678.73;;;0.11;72.49
76728;BME280;65652;53.132;18.026;2023-12-07T05:30:35;101677.36;;;0.10;72.38
76728;BME280;65652;53.132;18.026;2023-12-07T05:33:03;101679.46;;;0.10;72.51
76728;BME280;65652;53.132;18.026;2023-12-07T05:35:30;101685.33;;;0.23;72.53
76728;BME280;65652;53.132;18.026;2023-12-07T05:37:57;101685.14;;;0.17;72.26
76728;BME280;65652;53.132;18.026;2023-12-07T05:40:25;101687.66;;;0.14;72.62
76728;BME280;65652;53.132;18.026;2023-12-07T05:42:52;101686.16;;;0.18;72.63
76728;BME280;65652;53.132;18.026;2023-12-07T05:45:19;101687.36;;;0.18;72.50
76728;BME280;65652;53.132;18.026;2023-12-07T05:47:46;101684.40;;;0.25;72.68
76728;BME280;65652;53.132;18.026;2023-12-07T05:50:13;101684.13;;;0.28;72.30
76728;BME280;65652;53.132;18.026;2023-12-07T05:52:40;101681.28;;;0.30;72.47
76728;BME280;65652;53.132;18.026;2023-12-07T05:55:07;101677.78;;;0.26;72.43
76728;BME280;65652;53.132;18.026;2023-12-07T05:57:34;101684.63;;;0.23;72.77
76728;BME280;65652;53.132;18.026;2023-12-07T06:00:01;101686.83;;;0.25;72.92
76728;BME280;65652;53.132;18.026;2023-12-07T06:02:38;101691.92;;;0.29;72.81
76728;BME280;65652;53.132;18.026;2023-12-07T06:05:05;101693.78;;;0.37;73.14
76728;BME280;65652;53.132;18.026;2023-12-07T06:07:33;101694.97;;;0.43;73.02
76728;BME280;65652;53.132;18.026;2023-12-07T06:10:00;101693.61;;;0.48;72.72
76728;BME280;65652;53.132;18.026;2023-12-07T06:12:27;101696.27;;;0.52;72.75
76728;BME280;65652;53.132;18.026;2023-12-07T06:14:54;101699.12;;;0.56;72.63
76728;BME280;65652;53.132;18.026;2023-12-07T06:17:21;101703.00;;;0.59;72.70
76728;BME280;65652;53.132;18.026;2023-12-07T06:19:48;101707.95;;;0.62;72.60
76728;BME280;65652;53.132;18.026;2023-12-07T06:22:15;101714.29;;;0.65;72.74
76728;BME280;65652;53.132;18.026;2023-12-07T06:24:42;101721.35;;;0.68;72.58
76728;BME280;65652;53.132;18.026;2023-12-07T06:27:12;101724.58;;;0.70;72.72
76728;BME280;65652;53.132;18.026;2023-12-07T06:29:39;101730.40;;;0.72;72.57
76728;BME280;65652;53.132;18.026;2023-12-07T06:32:06;101730.78;;;0.72;72.46
76728;BME280;65652;53.132;18.026;2023-12-07T06:34:33;101736.15;;;0.72;72.61
76728;BME280;65652;53.132;18.026;2023-12-07T06:37:00;101737.36;;;0.78;72.62
76728;BME280;65652;53.132;18.026;2023-12-07T06:39:26;101735.94;;;0.85;72.49
76728;BME280;65652;53.132;18.026;2023-12-07T06:41:53;101735.95;;;0.95;72.21
76728;BME280;65652;53.132;18.026;2023-12-07T06:44:24;101736.55;;;0.99;71.89
76728;BME280;65652;53.132;18.026;2023-12-07T06:46:50;101737.70;;;1.01;71.98
76728;BME280;65652;53.132;18.026;2023-12-07T06:49:17;101743.84;;;0.88;71.99
76728;BME280;65652;53.132;18.026;2023-12-07T06:51:45;101743.73;;;0.80;72.34
76728;BME280;65652;53.132;18.026;2023-12-07T06:54:12;101739.58;;;0.85;72.35
76728;BME280;65652;53.132;18.026;2023-12-07T06:56:40;101738.91;;;1.01;72.13
76728;BME280;65652;53.132;18.026;2023-12-07T06:59:07;101738.38;;;0.96;72.03
76728;BME280;65652;53.132;18.026;2023-12-07T07:01:34;101741.67;;;0.85;72.51
76728;BME280;65652;53.132;18.026;2023-12-07T07:04:01;101744.96;;;0.85;72.54
76728;BME280;65652;53.132;18.026;2023-12-07T07:06:27;101748.06;;;0.86;72.49
76728;BME280;65652;53.132;18.026;2023-12-07T07:08:54;101746.23;;;0.94;72.48
76728;BME280;65652;53.132;18.026;2023-12-07T07:11:21;101746.06;;;1.06;72.07
76728;BME280;65652;53.132;18.026;2023-12-07T07:13:48;101748.02;;;1.10;72.00
76728;BME280;65652;53.132;18.026;2023-12-07T07:16:15;101746.66;;;1.14;72.06
76728;BME280;65652;53.132;18.026;2023-12-07T07:18:41;101745.98;;;1.03;72.25
76728;BME280;65652;53.132;18.026;2023-12-07T07:21:08;101749.58;;;0.93;72.30
76728;BME280;65652;53.132;18.026;2023-12-07T07:23:35;101752.23;;;0.92;72.50
76728;BME280;65652;53.132;18.026;2023-12-07T07:26:02;101750.65;;;0.93;72.59
76728;BME280;65652;53.132;18.026;2023-12-07T07:28:29;101749.09;;;0.93;72.52
76728;BME280;65652;53.132;18.026;2023-12-07T07:30:56;101746.56;;;0.90;72.57
76728;BME280;65652;53.132;18.026;2023-12-07T07:33:23;101746.02;;;0.90;72.72
76728;BME280;65652;53.132;18.026;2023-12-07T07:35:50;101745.95;;;0.93;72.77
76728;BME280;65652;53.132;18.026;2023-12-07T07:38:17;101745.02;;;0.95;72.81
76728;BME280;65652;53.132;18.026;2023-12-07T07:40:44;101750.85;;;0.97;72.67
76728;BME280;65652;53.132;18.026;2023-12-07T07:43:11;101750.92;;;1.00;72.86
76728;BME280;65652;53.132;18.026;2023-12-07T07:45:38;101754.83;;;1.03;72.71
76728;BME280;65652;53.132;18.026;2023-12-07T07:48:05;101753.93;;;1.05;72.57
76728;BME280;65652;53.132;18.026;2023-12-07T07:50:32;101752.14;;;1.06;72.56
76728;BME280;65652;53.132;18.026;2023-12-07T07:53:00;101752.98;;;1.07;72.39
76728;BME280;65652;53.132;18.026;2023-12-07T07:55:28;101755.94;;;1.07;72.57
76728;BME280;65652;53.132;18.026;2023-12-07T07:57:55;101757.33;;;1.07;72.35
76728;BME280;65652;53.132;18.026;2023-12-07T08:00:21;101762.02;;;1.07;72.59
76728;BME280;65652;53.132;18.026;2023-12-07T08:02:51;101764.79;;;1.08;72.47
76728;BME280;65652;53.132;18.026;2023-12-07T08:05:17;101765.23;;;1.10;72.58
76728;BME280;65652;53.132;18.026;2023-12-07T08:07:44;101764.59;;;1.14;72.33
76728;BME280;65652;53.132;18.026;2023-12-07T08:10:11;101761.91;;;1.16;72.44
76728;BME280;65652;53.132;18.026;2023-12-07T08:12:39;101757.11;;;1.19;72.49
76728;BME280;65652;53.132;18.026;2023-12-07T08:15:07;101756.45;;;1.18;72.43
76728;BME280;65652;53.132;18.026;2023-12-07T08:17:40;101753.45;;;1.19;72.40
76728;BME280;65652;53.132;18.026;2023-12-07T08:20:08;101753.92;;;1.21;72.42
76728;BME280;65652;53.132;18.026;2023-12-07T08:22:38;101755.71;;;1.25;72.26
76728;BME280;65652;53.132;18.026;2023-12-07T08:25:06;101753.75;;;1.26;72.48
76728;BME280;65652;53.132;18.026;2023-12-07T08:27:33;101758.23;;;1.33;72.51
76728;BME280;65652;53.132;18.026;2023-12-07T08:30:00;101757.12;;;1.35;72.36
76728;BME280;65652;53.132;18.026;2023-12-07T08:32:28;101756.56;;;1.42;72.50
76728;BME280;65652;53.132;18.026;2023-12-07T08:34:55;101754.80;;;1.47;72.35
76728;BME280;65652;53.132;18.026;2023-12-07T08:37:22;101755.38;;;1.51;72.32
76728;BME280;65652;53.132;18.026;2023-12-07T08:39:49;101762.77;;;1.53;72.14
76728;BME280;65652;53.132;18.026;2023-12-07T08:42:16;101764.08;;;1.56;72.14
76728;BME280;65652;53.132;18.026;2023-12-07T08:44:45;101766.61;;;1.58;72.13
76728;BME280;65652;53.132;18.026;2023-12-07T08:47:12;101769.79;;;1.57;72.04
76728;BME280;65652;53.132;18.026;2023-12-07T08:49:39;101773.77;;;1.58;72.14
76728;BME280;65652;53.132;18.026;2023-12-07T08:52:05;101775.25;;;1.61;72.13
76728;BME280;65652;53.132;18.026;2023-12-07T08:54:33;101781.05;;;1.64;72.15
76728;BME280;65652;53.132;18.026;2023-12-07T08:57:00;101784.38;;;1.64;72.05
76728;BME280;65652;53.132;18.026;2023-12-07T08:59:27;101782.73;;;1.66;72.11
76728;BME280;65652;53.132;18.026;2023-12-07T09:01:53;101780.86;;;1.70;72.05
76728;BME280;65652;53.132;18.026;2023-12-07T09:04:20;101775.39;;;1.72;72.01
76728;BME280;65652;53.132;18.026;2023-12-07T09:06:47;101780.33;;;1.75;72.02
76728;BME280;65652;53.132;18.026;2023-12-07T09:09:14;101782.14;;;1.78;71.98
76728;BME280;65652;53.132;18.026;2023-12-07T09:11:41;101785.38;;;1.80;71.84
76728;BME280;65652;53.132;18.026;2023-12-07T09:14:08;101788.49;;;1.81;71.84
76728;BME280;65652;53.132;18.026;2023-12-07T09:16:34;101789.95;;;1.79;71.73
76728;BME280;65652;53.132;18.026;2023-12-07T09:19:01;101791.58;;;1.77;71.80
76728;BME280;65652;53.132;18.026;2023-12-07T09:21:28;101795.38;;;1.78;71.99
76728;BME280;65652;53.132;18.026;2023-12-07T09:23:55;101794.42;;;1.81;71.92
76728;BME280;65652;53.132;18.026;2023-12-07T09:26:22;101794.52;;;1.83;71.87
76728;BME280;65652;53.132;18.026;2023-12-07T09:28:48;101793.33;;;1.82;71.52
76728;BME280;65652;53.132;18.026;2023-12-07T09:31:15;101796.34;;;1.81;71.87
76728;BME280;65652;53.132;18.026;2023-12-07T09:33:43;101788.06;;;1.84;72.03
76728;BME280;65652;53.132;18.026;2023-12-07T09:36:10;101786.36;;;1.87;71.83
76728;BME280;65652;53.132;18.026;2023-12-07T09:38:38;101787.30;;;1.90;71.93
76728;BME280;65652;53.132;18.026;2023-12-07T09:41:05;101783.89;;;1.93;71.55
76728;BME280;65652;53.132;18.026;2023-12-07T09:43:32;101781.40;;;1.95;71.64
76728;BME280;65652;53.132;18.026;2023-12-07T09:46:00;101776.98;;;1.97;71.63
76728;BME280;65652;53.132;18.026;2023-12-07T09:48:26;101773.38;;;2.00;71.73
76728;BME280;65652;53.132;18.026;2023-12-07T09:50:55;101767.38;;;2.02;71.75
76728;BME280;65652;53.132;18.026;2023-12-07T09:53:22;101770.87;;;2.02;71.54
76728;BME280;65652;53.132;18.026;2023-12-07T09:55:49;101770.11;;;2.04;71.57
76728;BME280;65652;53.132;18.026;2023-12-07T09:58:16;101773.86;;;2.06;71.54
76728;BME280;65652;53.132;18.026;2023-12-07T10:00:42;101776.38;;;2.08;71.59
76728;BME280;65652;53.132;18.026;2023-12-07T10:03:20;101779.27;;;2.11;71.66
76728;BME280;65652;53.132;18.026;2023-12-07T10:05:58;101778.20;;;2.12;71.56
76728;BME280;65652;53.132;18.026;2023-12-07T10:08:27;101777.51;;;2.12;71.39
76728;BME280;65652;53.132;18.026;2023-12-07T10:11:02;101776.73;;;2.14;71.54
76728;BME280;65652;53.132;18.026;2023-12-07T10:13:30;101779.95;;;2.16;71.54
76728;BME280;65652;53.132;18.026;2023-12-07T10:18:34;101779.56;;;2.22;71.44
76728;BME280;65652;53.132;18.026;2023-12-07T10:21:01;101774.89;;;2.31;71.09
76728;BME280;65652;53.132;18.026;2023-12-07T10:23:29;101773.41;;;2.29;71.32
76728;BME280;65652;53.132;18.026;2023-12-07T10:25:58;101771.39;;;2.31;71.24
76728;BME280;65652;53.132;18.026;2023-12-07T10:28:26;101775.39;;;2.36;71.39
76728;BME280;65652;53.132;18.026;2023-12-07T10:30:53;101771.90;;;2.41;71.23
76728;BME280;65652;53.132;18.026;2023-12-07T10:33:20;101773.83;;;2.46;71.17
76728;BME280;65652;53.132;18.026;2023-12-07T10:35:47;101773.13;;;2.50;71.22
76728;BME280;65652;53.132;18.026;2023-12-07T10:38:17;101769.43;;;2.56;71.15
76728;BME280;65652;53.132;18.026;2023-12-07T10:40:46;101764.59;;;2.60;70.91
76728;BME280;65652;53.132;18.026;2023-12-07T10:43:14;101765.58;;;2.62;70.98
76728;BME280;65652;53.132;18.026;2023-12-07T10:45:42;101762.38;;;2.63;70.89
76728;BME280;65652;53.132;18.026;2023-12-07T10:48:11;101768.17;;;2.67;70.90
76728;BME280;65652;53.132;18.026;2023-12-07T10:50:42;101760.16;;;2.71;70.77
76728;BME280;65652;53.132;18.026;2023-12-07T10:53:33;101759.30;;;2.75;70.74
76728;BME280;65652;53.132;18.026;2023-12-07T10:56:10;101766.94;;;2.76;70.66
76728;BME280;65652;53.132;18.026;2023-12-07T10:58:38;101765.85;;;2.77;70.64
76728;BME280;65652;53.132;18.026;2023-12-07T11:01:07;101764.05;;;2.78;70.74
76728;BME280;65652;53.132;18.026;2023-12-07T11:03:36;101760.52;;;2.79;70.65
76728;BME280;65652;53.132;18.026;2023-12-07T11:06:04;101756.59;;;2.82;70.62
76728;BME280;65652;53.132;18.026;2023-12-07T11:08:43;101758.25;;;2.85;70.52
76728;BME280;65652;53.132;18.026;2023-12-07T11:11:24;101758.96;;;2.84;70.32
76728;BME280;65652;53.132;18.026;2023-12-07T11:13:59;101757.42;;;2.79;70.33
76728;BME280;65652;53.132;18.026;2023-12-07T11:16:31;101758.60;;;2.75;70.32
76728;BME280;65652;53.132;18.026;2023-12-07T11:18:58;101757.84;;;2.73;70.30
76728;BME280;65652;53.132;18.026;2023-12-07T11:21:26;101753.20;;;2.70;70.42
76728;BME280;65652;53.132;18.026;2023-12-07T11:23:54;101754.16;;;2.73;70.45
76728;BME280;65652;53.132;18.026;2023-12-07T11:26:23;101752.91;;;2.73;70.34
76728;BME280;65652;53.132;18.026;2023-12-07T11:28:51;101750.20;;;2.71;70.40
76728;BME280;65652;53.132;18.026;2023-12-07T11:31:19;101749.65;;;2.72;70.55
76728;BME280;65652;53.132;18.026;2023-12-07T11:33:47;101746.20;;;2.89;70.24
76728;BME280;65652;53.132;18.026;2023-12-07T11:36:14;101741.61;;;2.95;69.79
76728;BME280;65652;53.132;18.026;2023-12-07T11:41:43;101744.55;;;2.77;70.39
76728;BME280;65652;53.132;18.026;2023-12-07T11:44:10;101738.88;;;2.75;70.48
76728;BME280;65652;53.132;18.026;2023-12-07T11:46:38;101739.36;;;2.77;70.55
76728;BME280;65652;53.132;18.026;2023-12-07T11:49:05;101741.20;;;2.79;70.45
76728;BME280;65652;53.132;18.026;2023-12-07T11:51:37;101743.52;;;2.81;70.54
76728;BME280;65652;53.132;18.026;2023-12-07T11:54:04;101743.80;;;2.84;70.47
76728;BME280;65652;53.132;18.026;2023-12-07T11:56:32;101739.33;;;2.87;70.49
76728;BME280;65652;53.132;18.026;2023-12-07T11:58:59;101736.66;;;2.88;70.45
76728;BME280;65652;53.132;18.026;2023-12-07T12:01:26;101733.01;;;2.88;70.19
76728;BME280;65652;53.132;18.026;2023-12-07T12:03:54;101730.52;;;2.84;70.20
76728;BME280;65652;53.132;18.026;2023-12-07T12:06:23;101731.61;;;2.83;70.21
76728;BME280;65652;53.132;18.026;2023-12-07T12:08:50;101728.34;;;2.82;70.23
76728;BME280;65652;53.132;18.026;2023-12-07T12:11:17;101731.50;;;2.81;70.44
76728;BME280;65652;53.132;18.026;2023-12-07T12:13:45;101729.17;;;2.83;70.31
76728;BME280;65652;53.132;18.026;2023-12-07T12:16:12;101726.85;;;2.84;70.44
76728;BME280;65652;53.132;18.026;2023-12-07T12:18:39;101725.86;;;2.83;70.40
76728;BME280;65652;53.132;18.026;2023-12-07T12:21:07;101725.98;;;2.84;70.46
76728;BME280;65652;53.132;18.026;2023-12-07T12:23:35;101725.90;;;2.86;70.41
76728;BME280;65652;53.132;18.026;2023-12-07T12:26:02;101723.23;;;2.88;70.38
76728;BME280;65652;53.132;18.026;2023-12-07T12:28:30;101723.80;;;2.86;70.29
76728;BME280;65652;53.132;18.026;2023-12-07T12:30:59;101721.85;;;2.96;70.19
76728;BME280;65652;53.132;18.026;2023-12-07T12:33:26;101719.90;;;3.01;69.79
76728;BME280;65652;53.132;18.026;2023-12-07T12:36:19;101713.98;;;3.01;69.82
76728;BME280;65652;53.132;18.026;2023-12-07T12:38:49;101716.41;;;2.96;69.91
76728;BME280;65652;53.132;18.026;2023-12-07T12:41:20;101716.58;;;2.97;70.07
76728;BME280;65652;53.132;18.026;2023-12-07T12:43:47;101716.90;;;3.02;69.77
76728;BME280;65652;53.132;18.026;2023-12-07T12:46:18;101715.23;;;3.00;69.74
76728;BME280;65652;53.132;18.026;2023-12-07T12:48:55;101716.95;;;3.01;69.78
76728;BME280;65652;53.132;18.026;2023-12-07T12:51:24;101719.84;;;3.03;69.73
76728;BME280;65652;53.132;18.026;2023-12-07T12:53:54;101717.64;;;3.01;69.81
76728;BME280;65652;53.132;18.026;2023-12-07T12:56:22;101723.33;;;2.98;69.80
76728;BME280;65652;53.132;18.026;2023-12-07T12:58:50;101721.30;;;2.97;69.97